Terminal Aerodrome Forecast
Issued by NWS

Current Version | Previous Version | Text Only | Print | Product List | Glossary On
Versions: 1 2 3 4 5 6 7 8 9 10 11 12 13 14 15 16 17 18 19 20 21 22 23 24 25 26 27 28 29 30 31 32 33 34 35 36 37 38 39
000
FTUS45 KPSR 011201 AAA
TAFIWA
TAF AMD
KIWA 011201Z 0112/0212 31005KT P6SM FEW080 SCT120 BKN250
     FM011600 VRB05KT P6SM SCT100 SCT220
     FM012300 26008KT P6SM VCTS BKN070CB BKN150
     FM020200 29010KT P6SM VCSH SCT080 SCT120 BKN250
      AMD LTD TO CLD VIS AND WIND TIL 011300=

USA.gov is the U.S. government's official web portal to all federal, state and local government web resources and services.